createdAt,value
2023-07-31T00:00:49.657Z,0
2023-07-31T00:01:50.640Z,0
2023-07-31T00:02:51.541Z,0
2023-07-31T00:03:52.250Z,0
2023-07-31T00:04:52.318Z,0
2023-07-31T00:05:52.859Z,0
2023-07-31T00:06:54.005Z,0
2023-07-31T00:07:54.697Z,0
2023-07-31T00:08:55.726Z,0
2023-07-31T00:09:56.691Z,0
2023-07-31T00:10:57.226Z,0
2023-07-31T00:11:58.266Z,0
2023-07-31T00:12:59.199Z,0
2023-07-31T00:13:59.119Z,0
2023-07-31T00:15:00.267Z,0
2023-07-31T00:16:00.934Z,0
2023-07-31T00:17:03.659Z,0
2023-07-31T00:18:01.784Z,0
2023-07-31T00:19:01.829Z,0
2023-07-31T00:20:02.801Z,0
2023-07-31T00:21:03.351Z,0
2023-07-31T00:22:03.962Z,0
2023-07-31T00:23:04.704Z,0
2023-07-31T00:24:05.497Z,0
2023-07-31T00:25:06.490Z,0
2023-07-31T00:26:06.202Z,0
2023-07-31T00:27:06.698Z,0
2023-07-31T00:28:07.606Z,0
2023-07-31T00:29:08.020Z,0
2023-07-31T00:30:08.820Z,0
2023-07-31T00:31:10.075Z,0
2023-07-31T00:32:10.573Z,0
2023-07-31T00:33:11.438Z,0
2023-07-31T00:34:11.950Z,0
2023-07-31T00:35:12.639Z,0
2023-07-31T00:36:13.344Z,0
2023-07-31T00:37:13.867Z,0
2023-07-31T00:38:13.992Z,0
2023-07-31T00:39:14.907Z,0
2023-07-31T00:40:15.709Z,0
2023-07-31T00:41:16.248Z,0
2023-07-31T00:42:17.294Z,0
2023-07-31T00:43:17.619Z,0
2023-07-31T00:44:18.230Z,0
2023-07-31T00:45:19.264Z,0
2023-07-31T00:46:20.422Z,0
2023-07-31T00:47:20.931Z,0
2023-07-31T00:48:21.914Z,0
2023-07-31T00:49:22.259Z,0
2023-07-31T00:50:22.781Z,0
2023-07-31T00:51:23.473Z,0
2023-07-31T00:52:24.350Z,0
2023-07-31T00:53:24.849Z,0
2023-07-31T00:54:24.960Z,0
2023-07-31T00:55:25.813Z,0
2023-07-31T00:56:26.150Z,0
2023-07-31T00:57:27.110Z,0
2023-07-31T00:58:27.645Z,0
2023-07-31T00:59:28.206Z,0
2023-07-31T01:00:29.196Z,0
2023-07-31T01:01:29.945Z,0
2023-07-31T01:02:31.181Z,0
2023-07-31T01:03:30.989Z,0
2023-07-31T01:04:32.067Z,0
2023-07-31T01:05:33.019Z,0
2023-07-31T01:06:33.777Z,0
2023-07-31T01:07:34.945Z,0
2023-07-31T01:08:35.906Z,0
2023-07-31T01:09:36.617Z,0
2023-07-31T01:10:37.630Z,0
2023-07-31T01:11:37.544Z,0
2023-07-31T01:12:38.378Z,0
2023-07-31T01:13:38.263Z,0
2023-07-31T01:14:38.786Z,0
2023-07-31T01:15:39.946Z,0
2023-07-31T01:16:41.168Z,0
2023-07-31T01:17:41.007Z,0
2023-07-31T01:18:41.384Z,0
2023-07-31T01:19:42.508Z,0
2023-07-31T01:20:42.402Z,0
2023-07-31T01:21:43.549Z,0
2023-07-31T01:22:44.392Z,0
2023-07-31T01:23:43.897Z,0
2023-07-31T01:24:44.020Z,0
2023-07-31T01:25:45.611Z,0
2023-07-31T01:26:47.183Z,0
2023-07-31T01:27:46.687Z,0
2023-07-31T01:28:47.758Z,0
2023-07-31T01:29:48.458Z,0
2023-07-31T01:30:49.548Z,0
2023-07-31T01:31:49.819Z,0
2023-07-31T01:32:50.169Z,0
2023-07-31T01:33:50.555Z,0
2023-07-31T01:34:51.094Z,0
2023-07-31T01:35:52.036Z,0
2023-07-31T01:36:53.221Z,0
2023-07-31T01:37:53.058Z,0
2023-07-31T01:38:53.822Z,0
2023-07-31T01:39:54.331Z,0
2023-07-31T01:40:55.068Z,0
2023-07-31T01:41:55.611Z,0
2023-07-31T01:42:56.908Z,0
2023-07-31T01:43:57.947Z,0
2023-07-31T01:44:58.272Z,0
2023-07-31T01:45:59.037Z,0
2023-07-31T01:47:00.010Z,0
2023-07-31T01:48:00.935Z,0
2023-07-31T01:49:01.725Z,0
2023-07-31T01:50:02.317Z,0
2023-07-31T01:51:03.038Z,0
2023-07-31T01:52:03.968Z,0
2023-07-31T01:53:04.856Z,0
2023-07-31T01:54:05.342Z,0
2023-07-31T01:55:06.269Z,0
2023-07-31T01:56:07.005Z,0
2023-07-31T01:57:07.726Z,0
2023-07-31T01:58:08.134Z,0
2023-07-31T01:59:08.280Z,0
2023-07-31T02:00:09.207Z,0
2023-07-31T02:01:09.164Z,0
2023-07-31T02:02:10.011Z,0
2023-07-31T02:03:11.275Z,0
2023-07-31T02:04:11.256Z,0
2023-07-31T02:05:12.054Z,0
2023-07-31T02:06:13.049Z,0
2023-07-31T02:07:12.757Z,0
2023-07-31T02:08:15.348Z,0
2023-07-31T02:09:13.633Z,0
2023-07-31T02:10:14.555Z,0
2023-07-31T02:11:15.063Z,0
2023-07-31T02:12:16.268Z,0
2023-07-31T02:13:17.083Z,0
2023-07-31T02:14:17.978Z,0
2023-07-31T02:15:18.713Z,0
2023-07-31T02:16:19.810Z,0
2023-07-31T02:17:20.387Z,0
2023-07-31T02:18:21.112Z,0
2023-07-31T02:19:21.891Z,0
2023-07-31T02:20:22.612Z,0
2023-07-31T02:21:23.156Z,0
2023-07-31T02:22:23.870Z,0
2023-07-31T02:23:24.539Z,0
2023-07-31T02:24:25.254Z,0
2023-07-31T02:25:25.974Z,0
2023-07-31T02:26:26.911Z,0
2023-07-31T02:27:27.467Z,0
2023-07-31T02:28:28.409Z,0
2023-07-31T02:29:28.370Z,0
2023-07-31T02:30:29.331Z,0
2023-07-31T02:31:33.197Z,0
2023-07-31T02:32:30.898Z,0
2023-07-31T02:33:32.398Z,0
2023-07-31T02:34:32.901Z,0
2023-07-31T02:35:33.829Z,0
2023-07-31T02:36:33.745Z,0
2023-07-31T02:37:33.639Z,0
2023-07-31T02:38:34.592Z,0
2023-07-31T02:39:34.942Z,0
2023-07-31T02:40:35.922Z,0
2023-07-31T02:41:35.870Z,0
2023-07-31T02:42:36.578Z,0
2023-07-31T02:43:37.170Z,0
2023-07-31T02:44:37.896Z,0
2023-07-31T02:45:38.812Z,0
2023-07-31T02:46:39.288Z,0
2023-07-31T02:47:39.530Z,0
2023-07-31T02:48:39.343Z,0
2023-07-31T02:49:40.086Z,0
2023-07-31T02:50:40.067Z,0
2023-07-31T02:51:40.963Z,0
2023-07-31T02:52:41.678Z,0
2023-07-31T02:53:41.924Z,0
2023-07-31T02:54:42.622Z,0
2023-07-31T02:55:43.131Z,0
2023-07-31T02:56:44.992Z,0
2023-07-31T02:57:45.095Z,0
2023-07-31T02:58:45.823Z,0
2023-07-31T02:59:46.732Z,0
2023-07-31T03:00:47.279Z,0
2023-07-31T03:01:48.263Z,0
2023-07-31T03:02:48.376Z,0
2023-07-31T03:03:49.767Z,0
2023-07-31T03:04:49.680Z,0
2023-07-31T03:05:50.638Z,0
2023-07-31T03:06:51.838Z,0
2023-07-31T03:07:52.379Z,0
2023-07-31T03:08:53.159Z,0
2023-07-31T03:09:53.660Z,0
2023-07-31T03:10:54.187Z,0
2023-07-31T03:11:55.219Z,0
2023-07-31T03:12:55.770Z,0
2023-07-31T03:13:55.998Z,0
2023-07-31T03:14:56.534Z,0
2023-07-31T03:15:57.374Z,0
2023-07-31T03:16:58.247Z,0
2023-07-31T03:17:59.413Z,0
2023-07-31T03:18:59.235Z,0
2023-07-31T03:20:00.187Z,0
2023-07-31T03:21:00.751Z,0
2023-07-31T03:22:01.497Z,0
2023-07-31T03:23:02.036Z,0
2023-07-31T03:24:02.712Z,0
2023-07-31T03:25:03.431Z,0
2023-07-31T03:26:04.596Z,0
2023-07-31T03:27:04.554Z,0
2023-07-31T03:28:05.772Z,0
2023-07-31T03:29:06.708Z,0
2023-07-31T03:30:07.268Z,0
2023-07-31T03:31:07.940Z,0
2023-07-31T03:32:08.962Z,0
2023-07-31T03:33:09.207Z,4
2023-07-31T03:34:09.714Z,4
2023-07-31T03:35:10.826Z,0
2023-07-31T03:36:11.369Z,0
2023-07-31T03:37:11.905Z,4
2023-07-31T03:38:12.826Z,4
2023-07-31T03:39:13.396Z,4
2023-07-31T03:40:13.966Z,4
2023-07-31T03:41:14.672Z,4
2023-07-31T03:42:15.423Z,4
2023-07-31T03:43:16.191Z,8
2023-07-31T03:44:16.386Z,8
2023-07-31T03:45:17.516Z,8
2023-07-31T03:46:17.349Z,8
2023-07-31T03:47:18.740Z,12
2023-07-31T03:48:18.704Z,12
2023-07-31T03:49:19.025Z,16
2023-07-31T03:50:19.567Z,16
2023-07-31T03:51:19.995Z,16
2023-07-31T03:52:20.773Z,16
2023-07-31T03:53:21.738Z,20
2023-07-31T03:54:22.596Z,24
2023-07-31T03:55:23.195Z,20
2023-07-31T03:56:24.105Z,24
2023-07-31T03:57:24.701Z,28
2023-07-31T03:58:25.943Z,32
2023-07-31T03:59:25.655Z,28
2023-07-31T04:00:26.586Z,36
2023-07-31T04:01:26.838Z,36
2023-07-31T04:02:27.618Z,40
2023-07-31T04:03:28.405Z,40
2023-07-31T04:04:29.194Z,44
2023-07-31T04:05:29.846Z,48
2023-07-31T04:06:30.734Z,48
2023-07-31T04:07:31.646Z,52
2023-07-31T04:08:32.123Z,52
2023-07-31T04:09:32.427Z,56
2023-07-31T04:10:32.910Z,60
2023-07-31T04:11:33.652Z,64
2023-07-31T04:12:34.772Z,64
2023-07-31T04:13:35.095Z,72
2023-07-31T04:14:35.737Z,76
2023-07-31T04:15:36.245Z,80
2023-07-31T04:16:37.254Z,80
2023-07-31T04:17:37.770Z,84
2023-07-31T04:18:38.382Z,88
2023-07-31T04:19:39.298Z,92
2023-07-31T04:20:40.163Z,96
2023-07-31T04:21:40.644Z,96
2023-07-31T04:22:41.603Z,100
2023-07-31T04:23:42.561Z,104
2023-07-31T04:24:42.828Z,104
2023-07-31T04:25:43.975Z,108
2023-07-31T04:26:45.556Z,112
2023-07-31T04:27:45.086Z,116
2023-07-31T04:28:45.853Z,124
2023-07-31T04:29:46.596Z,124
2023-07-31T04:30:49.820Z,128
2023-07-31T04:31:50.656Z,136
2023-07-31T04:32:48.742Z,136
2023-07-31T04:33:49.686Z,144
2023-07-31T04:34:49.953Z,148
2023-07-31T04:35:50.683Z,152
2023-07-31T04:36:51.574Z,156
2023-07-31T04:37:51.484Z,164
2023-07-31T04:38:52.187Z,164
2023-07-31T04:39:52.903Z,168
2023-07-31T04:40:53.655Z,176
2023-07-31T04:41:54.214Z,176
2023-07-31T04:42:55.121Z,184
2023-07-31T04:43:55.568Z,188
2023-07-31T04:44:55.110Z,192
2023-07-31T04:45:55.801Z,196
2023-07-31T04:46:56.806Z,204
2023-07-31T04:47:57.208Z,208
2023-07-31T04:48:57.010Z,212
2023-07-31T04:49:57.711Z,216
2023-07-31T04:50:58.619Z,224
2023-07-31T04:51:59.179Z,232
2023-07-31T04:53:00.069Z,244
2023-07-31T04:54:00.586Z,248
2023-07-31T04:55:01.406Z,256
2023-07-31T04:56:02.019Z,264
2023-07-31T04:57:02.926Z,268
2023-07-31T04:58:03.917Z,280
2023-07-31T04:59:04.872Z,284
2023-07-31T05:00:05.824Z,288
2023-07-31T05:01:06.575Z,288
2023-07-31T05:02:07.453Z,288
2023-07-31T05:03:08.889Z,292
2023-07-31T05:04:08.681Z,292
2023-07-31T05:05:09.783Z,300
2023-07-31T05:06:10.705Z,316
2023-07-31T05:07:10.282Z,332
2023-07-31T05:08:11.039Z,340
2023-07-31T05:09:11.753Z,352
2023-07-31T05:10:12.392Z,364
2023-07-31T05:11:13.118Z,376
2023-07-31T05:12:13.883Z,388
2023-07-31T05:13:14.659Z,392
2023-07-31T05:14:14.653Z,388
2023-07-31T05:15:15.540Z,392
2023-07-31T05:16:16.611Z,392
2023-07-31T05:17:17.400Z,388
2023-07-31T05:18:18.742Z,400
2023-07-31T05:19:18.470Z,420
2023-07-31T05:20:19.577Z,444
2023-07-31T05:21:20.332Z,472
2023-07-31T05:22:21.078Z,488
2023-07-31T05:23:22.015Z,496
2023-07-31T05:24:22.712Z,500
2023-07-31T05:25:23.102Z,504
2023-07-31T05:26:25.114Z,512
2023-07-31T05:27:24.674Z,520
2023-07-31T05:28:25.470Z,524
2023-07-31T05:29:26.256Z,536
2023-07-31T05:30:26.962Z,532
2023-07-31T05:31:27.902Z,524
2023-07-31T05:32:28.866Z,516
2023-07-31T05:33:29.059Z,520
2023-07-31T05:34:29.644Z,524
2023-07-31T05:35:30.036Z,512
2023-07-31T05:36:30.519Z,520
2023-07-31T05:37:30.873Z,500
2023-07-31T05:38:31.779Z,492
2023-07-31T05:39:32.902Z,472
2023-07-31T05:40:32.827Z,452
2023-07-31T05:41:33.356Z,452
2023-07-31T05:42:34.260Z,448
2023-07-31T05:43:35.182Z,452
2023-07-31T05:44:35.956Z,452
2023-07-31T05:45:36.126Z,432
2023-07-31T05:46:37.924Z,440
2023-07-31T05:47:37.652Z,476
2023-07-31T05:48:38.510Z,492
2023-07-31T05:49:39.038Z,516
2023-07-31T05:50:39.764Z,512
2023-07-31T05:51:40.367Z,492
2023-07-31T05:52:41.366Z,480
2023-07-31T05:53:42.383Z,476
2023-07-31T05:54:43.332Z,448
2023-07-31T05:55:43.589Z,472
2023-07-31T05:56:45.339Z,488
2023-07-31T05:57:44.854Z,496
2023-07-31T05:58:45.195Z,512
2023-07-31T05:59:45.902Z,552
2023-07-31T06:00:46.375Z,572
2023-07-31T06:01:47.274Z,596
2023-07-31T06:02:48.356Z,604
2023-07-31T06:03:49.953Z,608
2023-07-31T06:04:50.236Z,636
2023-07-31T06:05:50.817Z,648
2023-07-31T06:06:51.891Z,660
2023-07-31T06:07:52.040Z,672
2023-07-31T06:08:52.339Z,696
2023-07-31T06:09:53.245Z,736
2023-07-31T06:10:53.730Z,752
2023-07-31T06:11:54.141Z,772
2023-07-31T06:12:54.859Z,768
2023-07-31T06:13:55.680Z,748
2023-07-31T06:14:55.233Z,752
2023-07-31T06:15:56.723Z,736
2023-07-31T06:16:57.897Z,724
2023-07-31T06:18:00.913Z,728
2023-07-31T06:18:59.670Z,736
2023-07-31T06:20:00.260Z,692
2023-07-31T06:21:00.918Z,744
2023-07-31T06:22:01.280Z,808
2023-07-31T06:23:02.128Z,820
2023-07-31T06:24:02.948Z,820
2023-07-31T06:25:03.671Z,832
2023-07-31T06:26:04.051Z,828
2023-07-31T06:27:04.768Z,840
2023-07-31T06:28:05.401Z,808
2023-07-31T06:29:06.303Z,904
2023-07-31T06:30:07.185Z,996
2023-07-31T06:31:07.927Z,1032
2023-07-31T06:32:10.372Z,1096
2023-07-31T06:33:09.430Z,1140
2023-07-31T06:35:11.302Z,1312
2023-07-31T06:36:12.096Z,1300
2023-07-31T06:37:13.026Z,1332
2023-07-31T06:38:13.788Z,1412
2023-07-31T06:39:14.510Z,1460
2023-07-31T06:40:15.275Z,1316
2023-07-31T06:41:15.376Z,1108
2023-07-31T06:42:16.099Z,968
2023-07-31T06:43:16.208Z,900
2023-07-31T06:44:17.124Z,872
2023-07-31T06:45:17.979Z,924
2023-07-31T06:46:18.656Z,1060
2023-07-31T06:47:19.351Z,1160
2023-07-31T06:48:20.144Z,1184
2023-07-31T06:49:23.389Z,1220
2023-07-31T06:50:21.584Z,1208
2023-07-31T06:51:22.503Z,1184
2023-07-31T06:52:23.507Z,1156
2023-07-31T06:53:24.255Z,1128
2023-07-31T06:54:25.079Z,1072
2023-07-31T06:55:25.819Z,1004
2023-07-31T06:56:26.420Z,1088
2023-07-31T06:57:27.147Z,1140
2023-07-31T06:58:28.107Z,1116
2023-07-31T06:59:29.112Z,1204
2023-07-31T07:00:30.069Z,1240
2023-07-31T07:01:29.963Z,1416
2023-07-31T07:02:30.835Z,1660
2023-07-31T07:03:31.646Z,1652
2023-07-31T07:04:32.770Z,1636
2023-07-31T07:05:34.116Z,1716
2023-07-31T07:06:34.212Z,1748
2023-07-31T07:07:35.783Z,1524
2023-07-31T07:08:38.508Z,1640
2023-07-31T07:09:36.469Z,1444
2023-07-31T07:10:37.285Z,1308
2023-07-31T07:11:38.196Z,1228
2023-07-31T07:12:39.156Z,1092
2023-07-31T07:13:39.874Z,1004
2023-07-31T07:14:40.862Z,984
2023-07-31T07:15:40.927Z,1028
2023-07-31T07:16:41.689Z,1084
2023-07-31T07:17:43.123Z,1100
2023-07-31T07:19:05.131Z,1116
2023-07-31T07:19:44.299Z,1148
2023-07-31T07:20:44.408Z,1140
2023-07-31T07:21:45.133Z,1308
2023-07-31T07:22:45.270Z,1204
2023-07-31T07:23:46.213Z,1172
2023-07-31T07:24:46.133Z,1156
2023-07-31T07:25:47.234Z,1176
2023-07-31T07:26:48.243Z,1284
2023-07-31T07:27:48.372Z,1388
2023-07-31T07:28:49.301Z,1524
2023-07-31T07:29:49.922Z,1596
2023-07-31T07:30:50.942Z,1732
2023-07-31T07:31:51.837Z,1472
2023-07-31T07:32:52.993Z,1480
2023-07-31T07:33:52.799Z,1380
2023-07-31T07:34:53.287Z,1340
2023-07-31T07:35:54.590Z,1452
2023-07-31T07:36:54.424Z,2104
2023-07-31T07:37:58.892Z,1800
2023-07-31T07:38:55.709Z,1656
2023-07-31T07:39:56.504Z,1664
2023-07-31T07:40:57.564Z,1768
2023-07-31T07:41:58.735Z,1776
2023-07-31T07:42:59.281Z,1644
2023-07-31T07:44:00.212Z,1788
2023-07-31T07:45:01.159Z,1492
2023-07-31T07:46:01.970Z,1512
2023-07-31T07:47:03.578Z,1676
2023-07-31T07:48:03.675Z,2036
2023-07-31T07:49:04.868Z,1920
2023-07-31T07:50:07.335Z,1932
2023-07-31T07:51:06.204Z,2208
2023-07-31T07:52:06.716Z,2592
2023-07-31T07:53:07.425Z,2756
2023-07-31T07:54:08.338Z,2632
2023-07-31T07:55:09.108Z,2428
2023-07-31T07:56:10.037Z,2200
2023-07-31T07:57:10.873Z,1932
2023-07-31T07:58:11.405Z,1856
2023-07-31T07:59:12.113Z,1744
2023-07-31T08:00:12.817Z,1992
2023-07-31T08:01:13.836Z,2280
2023-07-31T08:02:14.733Z,2876
2023-07-31T08:03:16.227Z,3856
2023-07-31T08:04:16.190Z,5048
2023-07-31T08:05:16.983Z,5500
2023-07-31T08:06:18.660Z,5276
2023-07-31T08:07:18.294Z,4888
2023-07-31T08:08:18.999Z,3836
2023-07-31T08:09:19.942Z,3424
2023-07-31T08:10:20.924Z,3180
2023-07-31T08:11:21.537Z,2336
2023-07-31T08:12:22.459Z,2160
2023-07-31T08:13:24.012Z,2168
2023-07-31T08:14:24.092Z,2304
2023-07-31T08:15:23.497Z,2412
2023-07-31T08:16:23.920Z,2224
2023-07-31T08:17:23.576Z,2256
2023-07-31T08:18:25.194Z,2536
2023-07-31T08:19:25.895Z,2684
2023-07-31T08:20:26.297Z,2480
2023-07-31T08:21:26.656Z,2720
2023-07-31T08:22:27.036Z,3268
2023-07-31T08:23:27.343Z,2668
2023-07-31T08:24:29.585Z,3280
2023-07-31T08:26:30.639Z,3736
2023-07-31T08:27:30.217Z,3204
2023-07-31T08:29:31.062Z,5716
2023-07-31T08:30:33.886Z,3680
2023-07-31T08:31:33.155Z,2968
2023-07-31T08:32:33.765Z,2936
2023-07-31T08:33:34.784Z,2604
2023-07-31T08:34:35.756Z,2464
2023-07-31T08:35:36.112Z,2000
2023-07-31T08:36:39.870Z,1848
2023-07-31T08:37:38.071Z,1664
2023-07-31T08:38:38.573Z,1600
2023-07-31T08:39:39.317Z,1688
2023-07-31T08:40:40.257Z,1784
2023-07-31T08:41:41.186Z,1928
2023-07-31T08:42:42.859Z,1992
2023-07-31T08:43:42.739Z,2136
2023-07-31T08:44:43.652Z,4212
2023-07-31T08:45:44.404Z,3908
2023-07-31T08:46:45.625Z,2696
2023-07-31T08:47:48.258Z,2300
2023-07-31T08:48:46.593Z,1700
2023-07-31T08:49:47.327Z,1544
2023-07-31T08:50:48.254Z,1388
2023-07-31T08:51:49.415Z,1360
2023-07-31T08:52:49.124Z,1584
2023-07-31T08:53:49.651Z,1948
2023-07-31T08:54:50.259Z,2256
2023-07-31T08:55:51.437Z,2112
2023-07-31T08:56:51.752Z,2152
2023-07-31T08:57:52.104Z,4236
2023-07-31T09:01:55.157Z,2992
2023-07-31T09:02:55.336Z,4768
2023-07-31T09:04:56.066Z,2692
2023-07-31T09:05:57.230Z,3820
2023-07-31T09:06:58.052Z,2948
2023-07-31T09:07:58.037Z,2544
2023-07-31T09:08:58.570Z,2164
2023-07-31T09:09:59.683Z,1764
2023-07-31T09:11:00.476Z,1644
2023-07-31T09:12:01.433Z,1656
2023-07-31T09:13:02.378Z,1756
2023-07-31T09:14:02.815Z,1980
2023-07-31T09:15:03.802Z,2288
2023-07-31T09:16:04.086Z,2480
2023-07-31T09:17:05.200Z,2956
2023-07-31T09:18:05.362Z,1984
2023-07-31T09:19:05.178Z,2144
2023-07-31T09:20:06.134Z,4448
2023-07-31T09:21:07.066Z,5580
2023-07-31T09:22:08.558Z,4804
2023-07-31T09:23:08.091Z,9880
2023-07-31T09:24:09.337Z,8152
2023-07-31T09:26:09.952Z,10136
2023-07-31T09:27:11.467Z,12696
2023-07-31T09:28:11.811Z,4900
2023-07-31T09:29:11.953Z,7620
2023-07-31T09:30:11.978Z,8920
2023-07-31T09:31:11.782Z,8820
2023-07-31T09:32:12.643Z,11512
2023-07-31T09:33:13.403Z,4356
2023-07-31T09:34:14.737Z,2944
2023-07-31T09:35:15.701Z,1900
2023-07-31T09:36:19.579Z,1636
2023-07-31T09:37:17.799Z,1464
2023-07-31T09:38:17.858Z,1364
2023-07-31T09:39:18.679Z,1312
2023-07-31T09:40:19.825Z,1276
2023-07-31T09:41:19.641Z,1384
2023-07-31T09:42:20.634Z,1708
2023-07-31T09:43:21.401Z,2576
2023-07-31T09:44:22.378Z,3180
2023-07-31T09:45:42.260Z,5812
2023-07-31T09:47:25.575Z,2636
2023-07-31T09:48:25.569Z,2660
2023-07-31T09:49:26.279Z,2788
2023-07-31T09:50:26.916Z,2988
2023-07-31T09:51:27.480Z,3000
2023-07-31T09:52:28.766Z,5536
2023-07-31T09:53:28.688Z,2380
2023-07-31T09:54:29.671Z,2092
2023-07-31T09:55:30.226Z,1948
2023-07-31T09:56:30.798Z,1788
2023-07-31T09:57:31.543Z,1848
2023-07-31T09:58:32.251Z,2148
2023-07-31T09:59:35.823Z,3100
2023-07-31T10:00:33.744Z,3568
2023-07-31T10:01:34.752Z,2968
2023-07-31T10:02:35.454Z,2648
2023-07-31T10:03:35.722Z,2332
2023-07-31T10:04:35.812Z,2424
2023-07-31T10:05:36.506Z,2756
2023-07-31T10:06:37.495Z,2928
2023-07-31T10:07:38.508Z,3068
2023-07-31T10:08:39.530Z,3424
2023-07-31T10:09:40.484Z,7816
2023-07-31T10:10:41.409Z,5920
2023-07-31T10:11:41.973Z,9484
2023-07-31T10:12:43.113Z,12936
2023-07-31T10:13:43.672Z,12264
2023-07-31T10:14:44.562Z,11148
2023-07-31T10:15:45.395Z,9760
2023-07-31T10:16:47.917Z,7656
2023-07-31T10:17:47.233Z,12168
2023-07-31T10:18:47.258Z,11960
2023-07-31T10:19:47.982Z,11380
2023-07-31T10:20:48.916Z,8232
2023-07-31T10:21:49.477Z,8804
2023-07-31T10:22:50.877Z,6556
2023-07-31T10:23:50.814Z,3604
2023-07-31T10:24:51.339Z,3048
2023-07-31T10:25:52.302Z,6724
2023-07-31T10:26:53.068Z,4292
2023-07-31T10:27:53.178Z,4156
2023-07-31T10:28:53.463Z,3276
2023-07-31T10:29:54.411Z,4048
2023-07-31T10:30:55.630Z,3372
2023-07-31T10:31:55.908Z,2752
2023-07-31T10:32:56.761Z,3500
2023-07-31T10:33:56.583Z,5596
2023-07-31T10:34:57.515Z,8624
2023-07-31T10:35:58.211Z,11544
2023-07-31T10:36:58.953Z,11636
2023-07-31T10:38:00.210Z,8740
2023-07-31T10:39:00.355Z,10972
2023-07-31T10:40:00.664Z,10860
2023-07-31T10:41:01.403Z,3476
2023-07-31T10:42:02.152Z,4360
2023-07-31T10:43:02.534Z,9500
2023-07-31T10:44:02.858Z,3160
2023-07-31T10:45:03.590Z,3496
2023-07-31T10:46:03.577Z,3264
2023-07-31T10:47:04.464Z,3496
2023-07-31T10:48:05.763Z,3272
2023-07-31T10:49:05.613Z,3420
2023-07-31T10:50:06.387Z,3440
2023-07-31T10:51:07.620Z,5032
2023-07-31T10:52:07.479Z,3188
2023-07-31T10:53:08.527Z,3456
2023-07-31T10:54:09.245Z,3444
2023-07-31T10:55:09.996Z,4792
2023-07-31T10:56:10.719Z,7576
2023-07-31T10:57:11.458Z,4280
2023-07-31T10:58:12.606Z,4668
2023-07-31T10:59:14.958Z,2832
2023-07-31T11:00:13.669Z,2536
2023-07-31T11:01:14.602Z,2196
2023-07-31T11:02:14.642Z,2556
2023-07-31T11:03:15.976Z,3048
2023-07-31T11:04:15.758Z,3328
2023-07-31T11:05:16.993Z,6716
2023-07-31T11:06:18.451Z,4684
2023-07-31T11:07:17.867Z,6228
2023-07-31T11:08:18.633Z,7968
2023-07-31T11:09:19.663Z,11460
2023-07-31T11:10:19.597Z,5508
2023-07-31T11:11:19.907Z,6088
2023-07-31T11:12:20.487Z,10528
2023-07-31T11:13:20.989Z,11100
2023-07-31T11:14:21.546Z,11348
2023-07-31T11:15:22.531Z,4756
2023-07-31T11:16:23.745Z,11232
2023-07-31T11:17:23.634Z,7088
2023-07-31T11:18:24.853Z,11472
2023-07-31T11:19:25.166Z,6952
2023-07-31T11:20:25.707Z,10152
2023-07-31T11:21:26.766Z,9772
2023-07-31T11:22:27.534Z,9560
2023-07-31T11:23:28.727Z,9456
2023-07-31T11:24:28.870Z,9288
2023-07-31T11:25:29.713Z,9132
2023-07-31T11:26:30.458Z,9020
2023-07-31T11:27:31.387Z,9416
2023-07-31T11:28:31.671Z,9148
2023-07-31T11:29:32.447Z,9104
2023-07-31T11:30:33.237Z,8792
2023-07-31T11:31:34.098Z,8296
2023-07-31T11:32:34.354Z,8084
2023-07-31T11:33:35.544Z,8736
2023-07-31T11:34:35.560Z,8816
2023-07-31T11:35:36.754Z,9124
2023-07-31T11:36:37.434Z,9168
2023-07-31T11:37:37.315Z,8276
2023-07-31T11:38:38.555Z,8220
2023-07-31T11:39:39.149Z,9076
2023-07-31T11:40:43.834Z,8924
2023-07-31T11:41:40.549Z,8900
2023-07-31T11:42:41.748Z,5936
2023-07-31T11:43:41.863Z,8440
2023-07-31T11:44:42.324Z,8616
2023-07-31T11:45:42.869Z,8612
2023-07-31T11:46:44.796Z,8544
2023-07-31T11:47:45.020Z,8432
2023-07-31T11:48:45.326Z,8516
2023-07-31T11:49:48.266Z,8456
2023-07-31T11:50:45.964Z,8356
2023-07-31T11:51:47.089Z,8224
2023-07-31T11:52:48.061Z,8236
2023-07-31T11:53:49.340Z,8152
2023-07-31T11:54:49.298Z,8104
2023-07-31T11:55:50.143Z,8048
2023-07-31T11:56:51.340Z,7988
2023-07-31T11:57:51.718Z,7960
2023-07-31T11:58:51.849Z,7948
2023-07-31T11:59:52.930Z,7912
2023-07-31T12:00:52.847Z,7900
2023-07-31T12:01:53.714Z,7852
2023-07-31T12:02:54.774Z,7848
2023-07-31T12:03:55.164Z,7856
2023-07-31T12:04:55.207Z,7808
2023-07-31T12:05:55.599Z,7752
2023-07-31T12:06:58.574Z,7708
2023-07-31T12:07:56.441Z,7652
2023-07-31T12:08:57.256Z,7600
2023-07-31T12:09:58.104Z,7660
2023-07-31T12:10:58.869Z,7684
2023-07-31T12:11:59.425Z,7768
2023-07-31T12:13:00.187Z,7596
2023-07-31T12:14:01.102Z,6596
2023-07-31T12:15:01.648Z,7464
2023-07-31T12:16:02.767Z,6140
2023-07-31T12:17:03.304Z,6436
2023-07-31T12:18:03.881Z,7968
2023-07-31T12:19:04.955Z,7764
2023-07-31T12:20:07.813Z,7584
2023-07-31T12:21:05.341Z,7516
2023-07-31T12:22:06.824Z,6124
2023-07-31T12:23:06.783Z,7544
2023-07-31T12:24:06.998Z,7460
2023-07-31T12:25:06.757Z,7364
2023-07-31T12:26:07.556Z,7240
2023-07-31T12:27:08.274Z,7148
2023-07-31T12:28:09.244Z,7056
2023-07-31T12:29:09.066Z,7064
2023-07-31T12:30:09.534Z,6696
2023-07-31T12:31:10.263Z,6504
2023-07-31T12:32:11.041Z,7804
2023-07-31T12:33:12.215Z,5052
2023-07-31T12:34:13.002Z,5768
2023-07-31T12:35:13.755Z,6348
2023-07-31T12:36:14.722Z,6692
2023-07-31T12:37:15.246Z,7196
2023-07-31T12:38:16.011Z,5480
2023-07-31T12:39:16.802Z,4144
2023-07-31T12:40:32.823Z,4912
2023-07-31T12:41:17.457Z,4632
2023-07-31T12:42:18.483Z,5936
2023-07-31T12:43:19.233Z,4848
2023-07-31T12:44:20.426Z,5008
2023-07-31T12:45:20.407Z,5508
2023-07-31T12:46:21.233Z,5840
2023-07-31T12:47:21.097Z,5272
2023-07-31T12:48:22.333Z,2888
2023-07-31T12:49:22.310Z,3196
2023-07-31T12:50:23.290Z,3064
2023-07-31T12:51:24.415Z,2684
2023-07-31T12:52:25.095Z,3212
2023-07-31T12:53:25.654Z,2884
2023-07-31T12:54:26.882Z,2780
2023-07-31T12:55:27.016Z,2568
2023-07-31T12:56:27.950Z,2588
2023-07-31T12:57:28.902Z,2316
2023-07-31T12:58:28.867Z,2188
2023-07-31T12:59:29.978Z,2228
2023-07-31T13:00:31.517Z,2252
2023-07-31T13:01:31.642Z,1976
2023-07-31T13:02:34.804Z,1920
2023-07-31T13:03:33.269Z,1920
2023-07-31T13:04:33.536Z,1980
2023-07-31T13:05:34.504Z,2092
2023-07-31T13:06:35.282Z,2012
2023-07-31T13:07:36.333Z,1980
2023-07-31T13:08:37.291Z,2616
2023-07-31T13:09:37.471Z,1832
2023-07-31T13:10:37.478Z,1772
2023-07-31T13:11:38.590Z,2044
2023-07-31T13:12:39.308Z,1896
2023-07-31T13:13:41.884Z,1868
2023-07-31T13:14:40.406Z,1756
2023-07-31T13:15:41.649Z,1648
2023-07-31T13:16:41.436Z,1608
2023-07-31T13:17:42.327Z,1624
2023-07-31T13:18:42.928Z,1660
2023-07-31T13:19:43.712Z,1704
2023-07-31T13:20:44.408Z,1648
2023-07-31T13:21:45.343Z,1608
2023-07-31T13:22:47.111Z,1640
2023-07-31T13:23:46.978Z,1732
2023-07-31T13:24:48.035Z,1696
2023-07-31T13:25:48.553Z,1704
2023-07-31T13:26:49.635Z,1692
2023-07-31T13:27:50.566Z,1580
2023-07-31T13:28:51.603Z,1440
2023-07-31T13:29:51.384Z,1340
2023-07-31T13:30:52.179Z,1372
2023-07-31T13:31:52.959Z,1528
2023-07-31T13:32:54.121Z,2720
2023-07-31T13:33:54.520Z,2120
2023-07-31T13:34:54.618Z,2008
2023-07-31T13:35:55.786Z,2652
2023-07-31T13:36:55.913Z,1860
2023-07-31T13:37:55.841Z,1788
2023-07-31T13:38:56.624Z,1816
2023-07-31T13:39:57.880Z,1948
2023-07-31T13:40:58.529Z,3960
2023-07-31T13:41:59.244Z,2748
2023-07-31T13:42:59.751Z,2448
2023-07-31T13:44:00.312Z,1948
2023-07-31T13:45:01.091Z,1828
2023-07-31T13:46:01.381Z,1796
2023-07-31T13:47:02.282Z,1884
2023-07-31T13:48:03.279Z,1944
2023-07-31T13:49:03.461Z,2016
2023-07-31T13:50:04.412Z,1988
2023-07-31T13:51:04.105Z,1908
2023-07-31T13:52:04.628Z,1800
2023-07-31T13:53:05.356Z,1708
2023-07-31T13:54:06.253Z,1572
2023-07-31T13:55:07.235Z,1500
2023-07-31T13:56:07.964Z,1508
2023-07-31T13:57:08.727Z,1540
2023-07-31T13:58:09.890Z,1492
2023-07-31T13:59:09.861Z,1564
2023-07-31T14:00:10.897Z,1624
2023-07-31T14:01:11.748Z,1704
2023-07-31T14:02:11.734Z,4092
2023-07-31T14:03:12.837Z,3592
2023-07-31T14:04:13.159Z,4512
2023-07-31T14:05:13.965Z,1836